Desmet, Idaho
Current Conditions -  °F | °C
As of 5:53 AM on Monday 26 Jan 2015 (Local Time) from KPUW Reporting Station
Clear Clear  
Wind Chill: 37°   Ceiling: Unl
Heat Index: 44°   Visibility: 10mi
Dew Point: 36°   Wind: 15mph
Humidity: 73%   Direction: 100°E
Pressure: 30.1"   Gusts: NA
Location:  47.15°N, 116.92°W
Report Text: KPUW 261353Z AUTO 10013KT 10SM CLR 07/02 A3010 RMK AO2 SLP200 T00670022
Loading
Personal Weather Stations






























Interactive Weather Map New forecast layout! Learn more

10-Day Weather Forecast

Advertisements
Track Severe Weather on mobile